sensor_id;sensor_type;location;lat;lon;timestamp;P1;durP1;ratioP1;P2;durP2;ratioP2
75135;SDS011;63707;52.212;9.540;2022-12-20T00:00:12;37.08;;;18.50;;
75135;SDS011;63707;52.212;9.540;2022-12-20T00:02:38;37.40;;;18.95;;
75135;SDS011;63707;52.212;9.540;2022-12-20T00:05:04;37.55;;;18.05;;
75135;SDS011;63707;52.212;9.540;2022-12-20T00:07:29;36.00;;;16.55;;
75135;SDS011;63707;52.212;9.540;2022-12-20T00:09:55;37.67;;;19.02;;
75135;SDS011;63707;52.212;9.540;2022-12-20T00:12:20;38.35;;;18.67;;
75135;SDS011;63707;52.212;9.540;2022-12-20T00:14:46;39.10;;;18.88;;
75135;SDS011;63707;52.212;9.540;2022-12-20T00:17:13;38.28;;;18.45;;
75135;SDS011;63707;52.212;9.540;2022-12-20T00:19:38;37.10;;;18.23;;
75135;SDS011;63707;52.212;9.540;2022-12-20T00:22:04;36.42;;;18.33;;
75135;SDS011;63707;52.212;9.540;2022-12-20T00:24:29;39.13;;;17.52;;
75135;SDS011;63707;52.212;9.540;2022-12-20T00:26:55;34.30;;;17.88;;
75135;SDS011;63707;52.212;9.540;2022-12-20T00:29:20;39.92;;;18.95;;
75135;SDS011;63707;52.212;9.540;2022-12-20T00:31:45;37.95;;;18.38;;
75135;SDS011;63707;52.212;9.540;2022-12-20T00:34:12;41.40;;;19.40;;
75135;SDS011;63707;52.212;9.540;2022-12-20T00:36:38;38.88;;;18.70;;
75135;SDS011;63707;52.212;9.540;2022-12-20T00:39:04;38.08;;;19.17;;
75135;SDS011;63707;52.212;9.540;2022-12-20T00:41:30;38.35;;;17.48;;
75135;SDS011;63707;52.212;9.540;2022-12-20T00:43:57;37.13;;;18.40;;
75135;SDS011;63707;52.212;9.540;2022-12-20T00:46:22;34.97;;;18.88;;
75135;SDS011;63707;52.212;9.540;2022-12-20T00:48:48;32.60;;;15.95;;
75135;SDS011;63707;52.212;9.540;2022-12-20T00:51:17;43.70;;;19.08;;
75135;SDS011;63707;52.212;9.540;2022-12-20T00:53:43;39.75;;;17.25;;
75135;SDS011;63707;52.212;9.540;2022-12-20T00:56:10;39.35;;;18.25;;
75135;SDS011;63707;52.212;9.540;2022-12-20T00:58:36;34.58;;;18.33;;
75135;SDS011;63707;52.212;9.540;2022-12-20T01:01:03;34.67;;;17.52;;
75135;SDS011;63707;52.212;9.540;2022-12-20T01:03:30;38.53;;;16.38;;
75135;SDS011;63707;52.212;9.540;2022-12-20T01:05:57;33.55;;;15.98;;
75135;SDS011;63707;52.212;9.540;2022-12-20T01:08:25;37.80;;;17.40;;
75135;SDS011;63707;52.212;9.540;2022-12-20T01:10:59;34.03;;;17.35;;
75135;SDS011;63707;52.212;9.540;2022-12-20T01:13:25;36.08;;;18.10;;
75135;SDS011;63707;52.212;9.540;2022-12-20T01:15:50;38.55;;;17.40;;
75135;SDS011;63707;52.212;9.540;2022-12-20T01:18:16;37.92;;;17.42;;
75135;SDS011;63707;52.212;9.540;2022-12-20T01:20:41;36.33;;;18.60;;
75135;SDS011;63707;52.212;9.540;2022-12-20T01:23:07;38.88;;;17.10;;
75135;SDS011;63707;52.212;9.540;2022-12-20T01:25:34;36.55;;;18.63;;
75135;SDS011;63707;52.212;9.540;2022-12-20T01:28:00;37.22;;;18.35;;
75135;SDS011;63707;52.212;9.540;2022-12-20T01:30:25;36.10;;;17.92;;
75135;SDS011;63707;52.212;9.540;2022-12-20T01:32:50;36.25;;;17.40;;
75135;SDS011;63707;52.212;9.540;2022-12-20T01:35:16;39.72;;;18.30;;
75135;SDS011;63707;52.212;9.540;2022-12-20T01:37:42;38.45;;;18.38;;
75135;SDS011;63707;52.212;9.540;2022-12-20T01:40:07;41.08;;;18.80;;
75135;SDS011;63707;52.212;9.540;2022-12-20T01:42:35;34.42;;;17.95;;
75135;SDS011;63707;52.212;9.540;2022-12-20T01:45:01;34.65;;;17.30;;
75135;SDS011;63707;52.212;9.540;2022-12-20T01:47:31;34.45;;;17.80;;
75135;SDS011;63707;52.212;9.540;2022-12-20T01:50:00;35.55;;;16.73;;
75135;SDS011;63707;52.212;9.540;2022-12-20T01:52:30;34.65;;;17.63;;
75135;SDS011;63707;52.212;9.540;2022-12-20T01:55:01;41.50;;;18.35;;
75135;SDS011;63707;52.212;9.540;2022-12-20T01:57:31;34.92;;;17.20;;
75135;SDS011;63707;52.212;9.540;2022-12-20T02:00:04;33.92;;;17.55;;
75135;SDS011;63707;52.212;9.540;2022-12-20T02:02:32;34.45;;;16.83;;
75135;SDS011;63707;52.212;9.540;2022-12-20T02:04:58;31.63;;;16.15;;
75135;SDS011;63707;52.212;9.540;2022-12-20T02:07:24;31.38;;;15.82;;
75135;SDS011;63707;52.212;9.540;2022-12-20T02:09:52;34.05;;;16.02;;
75135;SDS011;63707;52.212;9.540;2022-12-20T02:12:22;33.47;;;16.63;;
75135;SDS011;63707;52.212;9.540;2022-12-20T02:14:53;34.55;;;16.13;;
75135;SDS011;63707;52.212;9.540;2022-12-20T02:17:32;34.65;;;16.67;;
75135;SDS011;63707;52.212;9.540;2022-12-20T02:23:15;33.58;;;16.88;;
75135;SDS011;63707;52.212;9.540;2022-12-20T02:26:00;36.80;;;17.08;;
75135;SDS011;63707;52.212;9.540;2022-12-20T02:28:42;33.17;;;17.58;;
75135;SDS011;63707;52.212;9.540;2022-12-20T02:31:24;33.28;;;17.13;;
75135;SDS011;63707;52.212;9.540;2022-12-20T02:33:52;33.40;;;17.73;;
75135;SDS011;63707;52.212;9.540;2022-12-20T02:36:21;34.70;;;17.48;;
75135;SDS011;63707;52.212;9.540;2022-12-20T02:38:47;37.95;;;17.73;;
75135;SDS011;63707;52.212;9.540;2022-12-20T02:41:14;29.98;;;16.40;;
75135;SDS011;63707;52.212;9.540;2022-12-20T02:43:44;32.28;;;16.80;;
75135;SDS011;63707;52.212;9.540;2022-12-20T02:46:33;32.63;;;16.33;;
75135;SDS011;63707;52.212;9.540;2022-12-20T02:49:02;37.60;;;18.27;;
75135;SDS011;63707;52.212;9.540;2022-12-20T02:51:32;33.72;;;17.38;;
75135;SDS011;63707;52.212;9.540;2022-12-20T02:53:58;32.85;;;15.82;;
75135;SDS011;63707;52.212;9.540;2022-12-20T02:56:26;31.08;;;15.90;;
75135;SDS011;63707;52.212;9.540;2022-12-20T02:58:56;34.13;;;16.95;;
75135;SDS011;63707;52.212;9.540;2022-12-20T03:01:27;32.20;;;17.05;;
75135;SDS011;63707;52.212;9.540;2022-12-20T03:03:56;35.85;;;16.85;;
75135;SDS011;63707;52.212;9.540;2022-12-20T03:06:25;35.13;;;17.17;;
75135;SDS011;63707;52.212;9.540;2022-12-20T03:08:50;34.90;;;18.00;;
75135;SDS011;63707;52.212;9.540;2022-12-20T03:11:16;30.60;;;16.45;;
75135;SDS011;63707;52.212;9.540;2022-12-20T03:13:41;31.80;;;15.73;;
75135;SDS011;63707;52.212;9.540;2022-12-20T03:16:07;34.17;;;16.00;;
75135;SDS011;63707;52.212;9.540;2022-12-20T03:18:34;34.58;;;17.17;;
75135;SDS011;63707;52.212;9.540;2022-12-20T03:21:01;33.92;;;16.42;;
75135;SDS011;63707;52.212;9.540;2022-12-20T03:23:27;31.80;;;16.38;;
75135;SDS011;63707;52.212;9.540;2022-12-20T03:25:53;37.13;;;17.38;;
75135;SDS011;63707;52.212;9.540;2022-12-20T03:28:18;34.67;;;18.08;;
75135;SDS011;63707;52.212;9.540;2022-12-20T03:30:43;33.08;;;16.45;;
75135;SDS011;63707;52.212;9.540;2022-12-20T03:33:10;32.95;;;16.75;;
75135;SDS011;63707;52.212;9.540;2022-12-20T03:35:35;31.98;;;16.77;;
75135;SDS011;63707;52.212;9.540;2022-12-20T03:38:02;34.75;;;16.77;;
75135;SDS011;63707;52.212;9.540;2022-12-20T03:40:27;35.42;;;17.58;;
75135;SDS011;63707;52.212;9.540;2022-12-20T03:42:53;34.35;;;16.27;;
75135;SDS011;63707;52.212;9.540;2022-12-20T03:45:18;32.65;;;16.73;;
75135;SDS011;63707;52.212;9.540;2022-12-20T03:47:44;33.20;;;16.35;;
75135;SDS011;63707;52.212;9.540;2022-12-20T03:50:10;31.13;;;15.35;;
75135;SDS011;63707;52.212;9.540;2022-12-20T03:52:36;31.17;;;16.05;;
75135;SDS011;63707;52.212;9.540;2022-12-20T03:55:03;33.15;;;16.55;;
75135;SDS011;63707;52.212;9.540;2022-12-20T03:57:29;29.83;;;15.05;;
75135;SDS011;63707;52.212;9.540;2022-12-20T03:59:55;27.73;;;15.98;;
75135;SDS011;63707;52.212;9.540;2022-12-20T04:02:20;30.98;;;16.95;;
75135;SDS011;63707;52.212;9.540;2022-12-20T04:04:46;29.88;;;15.95;;
75135;SDS011;63707;52.212;9.540;2022-12-20T04:07:12;32.50;;;16.75;;
75135;SDS011;63707;52.212;9.540;2022-12-20T04:09:37;33.65;;;16.80;;
75135;SDS011;63707;52.212;9.540;2022-12-20T04:12:04;30.25;;;15.02;;
75135;SDS011;63707;52.212;9.540;2022-12-20T04:14:30;31.27;;;15.90;;
75135;SDS011;63707;52.212;9.540;2022-12-20T04:16:56;31.15;;;15.98;;
75135;SDS011;63707;52.212;9.540;2022-12-20T04:19:21;32.80;;;15.80;;
75135;SDS011;63707;52.212;9.540;2022-12-20T04:21:47;32.10;;;16.25;;
75135;SDS011;63707;52.212;9.540;2022-12-20T04:24:13;32.30;;;16.65;;
75135;SDS011;63707;52.212;9.540;2022-12-20T04:26:39;34.10;;;16.92;;
75135;SDS011;63707;52.212;9.540;2022-12-20T04:29:06;31.42;;;16.17;;
75135;SDS011;63707;52.212;9.540;2022-12-20T04:31:31;30.30;;;16.77;;
75135;SDS011;63707;52.212;9.540;2022-12-20T04:33:57;32.63;;;14.45;;
75135;SDS011;63707;52.212;9.540;2022-12-20T04:36:22;31.13;;;15.77;;
75135;SDS011;63707;52.212;9.540;2022-12-20T04:38:48;31.08;;;17.45;;
75135;SDS011;63707;52.212;9.540;2022-12-20T04:41:13;31.50;;;15.20;;
75135;SDS011;63707;52.212;9.540;2022-12-20T04:43:46;30.05;;;16.08;;
75135;SDS011;63707;52.212;9.540;2022-12-20T04:46:14;31.27;;;17.25;;
75135;SDS011;63707;52.212;9.540;2022-12-20T04:48:39;32.38;;;17.45;;
75135;SDS011;63707;52.212;9.540;2022-12-20T04:51:05;31.98;;;16.48;;
75135;SDS011;63707;52.212;9.540;2022-12-20T04:53:30;33.03;;;16.30;;
75135;SDS011;63707;52.212;9.540;2022-12-20T04:56:15;30.97;;;16.30;;
75135;SDS011;63707;52.212;9.540;2022-12-20T04:58:42;33.65;;;16.45;;
75135;SDS011;63707;52.212;9.540;2022-12-20T05:01:08;30.98;;;16.25;;
75135;SDS011;63707;52.212;9.540;2022-12-20T05:03:35;31.73;;;16.40;;
75135;SDS011;63707;52.212;9.540;2022-12-20T05:06:01;33.00;;;16.67;;
75135;SDS011;63707;52.212;9.540;2022-12-20T05:08:27;29.05;;;15.07;;
75135;SDS011;63707;52.212;9.540;2022-12-20T05:10:53;30.17;;;16.80;;
75135;SDS011;63707;52.212;9.540;2022-12-20T05:13:18;34.13;;;17.90;;
75135;SDS011;63707;52.212;9.540;2022-12-20T05:15:44;31.50;;;16.58;;
75135;SDS011;63707;52.212;9.540;2022-12-20T05:18:09;34.30;;;17.42;;
75135;SDS011;63707;52.212;9.540;2022-12-20T05:20:36;33.97;;;15.90;;
75135;SDS011;63707;52.212;9.540;2022-12-20T05:23:02;33.30;;;16.85;;
75135;SDS011;63707;52.212;9.540;2022-12-20T05:25:46;35.53;;;17.80;;
75135;SDS011;63707;52.212;9.540;2022-12-20T05:28:31;33.53;;;17.75;;
75135;SDS011;63707;52.212;9.540;2022-12-20T05:30:57;36.00;;;17.90;;
75135;SDS011;63707;52.212;9.540;2022-12-20T05:33:24;37.53;;;17.83;;
75135;SDS011;63707;52.212;9.540;2022-12-20T05:35:50;34.35;;;15.80;;
75135;SDS011;63707;52.212;9.540;2022-12-20T05:38:16;35.50;;;18.65;;
75135;SDS011;63707;52.212;9.540;2022-12-20T05:40:42;34.22;;;17.63;;
75135;SDS011;63707;52.212;9.540;2022-12-20T05:43:08;35.70;;;18.00;;
75135;SDS011;63707;52.212;9.540;2022-12-20T05:45:33;36.17;;;19.33;;
75135;SDS011;63707;52.212;9.540;2022-12-20T05:47:59;42.08;;;19.00;;
75135;SDS011;63707;52.212;9.540;2022-12-20T05:50:25;30.95;;;17.02;;
75135;SDS011;63707;52.212;9.540;2022-12-20T05:52:52;36.08;;;17.48;;
75135;SDS011;63707;52.212;9.540;2022-12-20T05:55:17;35.78;;;17.10;;
75135;SDS011;63707;52.212;9.540;2022-12-20T05:57:43;33.10;;;18.27;;
75135;SDS011;63707;52.212;9.540;2022-12-20T06:00:09;36.53;;;18.15;;
75135;SDS011;63707;52.212;9.540;2022-12-20T06:02:36;37.42;;;17.83;;
75135;SDS011;63707;52.212;9.540;2022-12-20T06:05:01;35.53;;;18.05;;
75135;SDS011;63707;52.212;9.540;2022-12-20T06:07:27;38.95;;;18.38;;
75135;SDS011;63707;52.212;9.540;2022-12-20T06:09:55;32.65;;;16.55;;
75135;SDS011;63707;52.212;9.540;2022-12-20T06:12:20;35.28;;;18.02;;
75135;SDS011;63707;52.212;9.540;2022-12-20T06:14:46;32.58;;;17.35;;
75135;SDS011;63707;52.212;9.540;2022-12-20T06:17:11;33.90;;;18.27;;
75135;SDS011;63707;52.212;9.540;2022-12-20T06:19:37;33.25;;;18.17;;
75135;SDS011;63707;52.212;9.540;2022-12-20T06:22:05;37.05;;;17.95;;
75135;SDS011;63707;52.212;9.540;2022-12-20T06:24:30;34.55;;;18.40;;
75135;SDS011;63707;52.212;9.540;2022-12-20T06:26:58;44.67;;;19.80;;
75135;SDS011;63707;52.212;9.540;2022-12-20T06:29:24;33.88;;;16.60;;
75135;SDS011;63707;52.212;9.540;2022-12-20T06:31:50;35.60;;;18.38;;
75135;SDS011;63707;52.212;9.540;2022-12-20T06:34:15;35.88;;;18.08;;
75135;SDS011;63707;52.212;9.540;2022-12-20T06:36:41;33.90;;;18.63;;
75135;SDS011;63707;52.212;9.540;2022-12-20T06:39:06;33.78;;;18.65;;
75135;SDS011;63707;52.212;9.540;2022-12-20T06:41:33;35.60;;;17.65;;
75135;SDS011;63707;52.212;9.540;2022-12-20T06:44:00;33.45;;;17.98;;
75135;SDS011;63707;52.212;9.540;2022-12-20T06:46:25;31.30;;;17.65;;
75135;SDS011;63707;52.212;9.540;2022-12-20T06:48:51;34.45;;;18.55;;
75135;SDS011;63707;52.212;9.540;2022-12-20T06:51:16;34.58;;;18.30;;
75135;SDS011;63707;52.212;9.540;2022-12-20T06:53:42;35.92;;;18.25;;
75135;SDS011;63707;52.212;9.540;2022-12-20T06:56:07;40.13;;;19.23;;
75135;SDS011;63707;52.212;9.540;2022-12-20T06:58:33;33.08;;;16.85;;
75135;SDS011;63707;52.212;9.540;2022-12-20T07:01:00;35.30;;;18.05;;
75135;SDS011;63707;52.212;9.540;2022-12-20T07:03:25;37.80;;;17.88;;
75135;SDS011;63707;52.212;9.540;2022-12-20T07:05:51;37.78;;;18.52;;
75135;SDS011;63707;52.212;9.540;2022-12-20T07:08:17;38.20;;;18.27;;
75135;SDS011;63707;52.212;9.540;2022-12-20T07:10:43;35.42;;;17.80;;
75135;SDS011;63707;52.212;9.540;2022-12-20T07:13:08;35.17;;;17.63;;
75135;SDS011;63707;52.212;9.540;2022-12-20T07:15:34;35.80;;;18.50;;
75135;SDS011;63707;52.212;9.540;2022-12-20T07:18:01;34.03;;;18.05;;
75135;SDS011;63707;52.212;9.540;2022-12-20T07:20:28;38.90;;;18.63;;
75135;SDS011;63707;52.212;9.540;2022-12-20T07:22:53;32.10;;;17.15;;
75135;SDS011;63707;52.212;9.540;2022-12-20T07:25:19;35.20;;;18.38;;
75135;SDS011;63707;52.212;9.540;2022-12-20T07:27:45;32.88;;;17.30;;
75135;SDS011;63707;52.212;9.540;2022-12-20T07:30:12;32.97;;;17.38;;
75135;SDS011;63707;52.212;9.540;2022-12-20T07:32:38;36.53;;;18.13;;
75135;SDS011;63707;52.212;9.540;2022-12-20T07:35:05;33.53;;;17.92;;
75135;SDS011;63707;52.212;9.540;2022-12-20T07:37:31;34.50;;;18.38;;
75135;SDS011;63707;52.212;9.540;2022-12-20T07:39:57;33.67;;;17.15;;
75135;SDS011;63707;52.212;9.540;2022-12-20T07:42:22;32.92;;;17.13;;
75135;SDS011;63707;52.212;9.540;2022-12-20T07:44:48;37.13;;;18.17;;
75135;SDS011;63707;52.212;9.540;2022-12-20T07:47:13;33.63;;;17.33;;
75135;SDS011;63707;52.212;9.540;2022-12-20T07:49:39;33.42;;;17.35;;
75135;SDS011;63707;52.212;9.540;2022-12-20T07:52:06;30.42;;;17.73;;
75135;SDS011;63707;52.212;9.540;2022-12-20T07:57:02;33.05;;;17.30;;
75135;SDS011;63707;52.212;9.540;2022-12-20T07:59:35;31.30;;;16.58;;
75135;SDS011;63707;52.212;9.540;2022-12-20T08:02:04;35.70;;;16.90;;
75135;SDS011;63707;52.212;9.540;2022-12-20T08:04:30;30.55;;;16.45;;
75135;SDS011;63707;52.212;9.540;2022-12-20T08:06:58;31.13;;;15.48;;
75135;SDS011;63707;52.212;9.540;2022-12-20T08:09:26;31.67;;;15.75;;
75135;SDS011;63707;52.212;9.540;2022-12-20T08:11:55;32.47;;;16.00;;
75135;SDS011;63707;52.212;9.540;2022-12-20T08:14:22;28.90;;;16.08;;
75135;SDS011;63707;52.212;9.540;2022-12-20T08:16:48;31.77;;;16.00;;
75135;SDS011;63707;52.212;9.540;2022-12-20T08:19:13;31.77;;;15.75;;
75135;SDS011;63707;52.212;9.540;2022-12-20T08:21:39;32.22;;;14.90;;
75135;SDS011;63707;52.212;9.540;2022-12-20T08:24:04;33.42;;;16.20;;
75135;SDS011;63707;52.212;9.540;2022-12-20T08:26:32;28.95;;;15.25;;
75135;SDS011;63707;52.212;9.540;2022-12-20T08:29:01;28.75;;;14.38;;
75135;SDS011;63707;52.212;9.540;2022-12-20T08:31:27;26.13;;;14.85;;
75135;SDS011;63707;52.212;9.540;2022-12-20T08:33:52;29.02;;;14.18;;
75135;SDS011;63707;52.212;9.540;2022-12-20T08:36:18;28.27;;;13.73;;
75135;SDS011;63707;52.212;9.540;2022-12-20T08:38:43;29.70;;;14.57;;
75135;SDS011;63707;52.212;9.540;2022-12-20T08:41:09;26.20;;;14.25;;
75135;SDS011;63707;52.212;9.540;2022-12-20T08:43:38;24.63;;;13.00;;
75135;SDS011;63707;52.212;9.540;2022-12-20T08:46:04;27.15;;;13.93;;
75135;SDS011;63707;52.212;9.540;2022-12-20T08:48:30;24.77;;;14.07;;
75135;SDS011;63707;52.212;9.540;2022-12-20T08:50:57;27.02;;;13.90;;
75135;SDS011;63707;52.212;9.540;2022-12-20T08:53:24;27.85;;;13.38;;
75135;SDS011;63707;52.212;9.540;2022-12-20T08:55:49;24.13;;;12.50;;
75135;SDS011;63707;52.212;9.540;2022-12-20T08:58:15;24.20;;;12.77;;
75135;SDS011;63707;52.212;9.540;2022-12-20T09:00:42;23.90;;;12.43;;
75135;SDS011;63707;52.212;9.540;2022-12-20T09:03:07;27.85;;;13.02;;
75135;SDS011;63707;52.212;9.540;2022-12-20T09:05:35;23.23;;;12.48;;
75135;SDS011;63707;52.212;9.540;2022-12-20T09:08:01;26.23;;;12.75;;
75135;SDS011;63707;52.212;9.540;2022-12-20T09:10:26;24.95;;;12.98;;
75135;SDS011;63707;52.212;9.540;2022-12-20T09:12:52;24.73;;;12.57;;
75135;SDS011;63707;52.212;9.540;2022-12-20T09:15:17;23.35;;;12.43;;
75135;SDS011;63707;52.212;9.540;2022-12-20T09:17:44;21.80;;;11.43;;
75135;SDS011;63707;52.212;9.540;2022-12-20T09:20:11;20.02;;;12.23;;
75135;SDS011;63707;52.212;9.540;2022-12-20T09:22:36;23.38;;;12.95;;
75135;SDS011;63707;52.212;9.540;2022-12-20T09:25:02;23.63;;;12.85;;
75135;SDS011;63707;52.212;9.540;2022-12-20T09:27:28;30.42;;;17.33;;
75135;SDS011;63707;52.212;9.540;2022-12-20T09:29:53;21.38;;;12.50;;
75135;SDS011;63707;52.212;9.540;2022-12-20T09:32:19;25.40;;;13.23;;
75135;SDS011;63707;52.212;9.540;2022-12-20T09:34:46;21.95;;;11.38;;
75135;SDS011;63707;52.212;9.540;2022-12-20T09:37:12;21.75;;;11.45;;
75135;SDS011;63707;52.212;9.540;2022-12-20T09:39:37;23.30;;;11.25;;
75135;SDS011;63707;52.212;9.540;2022-12-20T09:42:05;20.27;;;11.55;;
75135;SDS011;63707;52.212;9.540;2022-12-20T09:44:33;19.98;;;10.55;;
75135;SDS011;63707;52.212;9.540;2022-12-20T09:47:03;20.52;;;11.57;;
75135;SDS011;63707;52.212;9.540;2022-12-20T09:49:30;20.50;;;11.48;;
75135;SDS011;63707;52.212;9.540;2022-12-20T09:52:06;23.15;;;10.80;;
75135;SDS011;63707;52.212;9.540;2022-12-20T09:54:45;22.10;;;10.90;;
75135;SDS011;63707;52.212;9.540;2022-12-20T09:57:21;19.13;;;9.85;;
75135;SDS011;63707;52.212;9.540;2022-12-20T09:59:54;17.92;;;11.05;;
75135;SDS011;63707;52.212;9.540;2022-12-20T10:02:21;20.77;;;9.98;;
75135;SDS011;63707;52.212;9.540;2022-12-20T10:04:49;18.50;;;10.27;;
75135;SDS011;63707;52.212;9.540;2022-12-20T10:07:20;21.40;;;10.43;;
75135;SDS011;63707;52.212;9.540;2022-12-20T10:09:58;21.15;;;9.98;;
75135;SDS011;63707;52.212;9.540;2022-12-20T10:12:34;21.27;;;10.70;;
75135;SDS011;63707;52.212;9.540;2022-12-20T10:15:12;17.77;;;10.20;;
75135;SDS011;63707;52.212;9.540;2022-12-20T10:17:45;16.75;;;9.00;;
75135;SDS011;63707;52.212;9.540;2022-12-20T10:23:08;18.90;;;9.35;;
75135;SDS011;63707;52.212;9.540;2022-12-20T10:25:39;14.45;;;8.68;;
75135;SDS011;63707;52.212;9.540;2022-12-20T10:28:09;17.50;;;8.68;;
75135;SDS011;63707;52.212;9.540;2022-12-20T10:30:38;14.63;;;8.50;;
75135;SDS011;63707;52.212;9.540;2022-12-20T10:33:03;16.17;;;8.13;;
75135;SDS011;63707;52.212;9.540;2022-12-20T10:35:29;15.20;;;8.77;;
75135;SDS011;63707;52.212;9.540;2022-12-20T10:38:01;17.00;;;9.05;;
75135;SDS011;63707;52.212;9.540;2022-12-20T10:40:31;15.52;;;8.25;;
75135;SDS011;63707;52.212;9.540;2022-12-20T10:42:59;12.93;;;7.78;;
75135;SDS011;63707;52.212;9.540;2022-12-20T10:45:26;12.35;;;8.50;;
75135;SDS011;63707;52.212;9.540;2022-12-20T10:47:58;16.52;;;8.65;;
75135;SDS011;63707;52.212;9.540;2022-12-20T10:50:25;12.35;;;7.50;;
75135;SDS011;63707;52.212;9.540;2022-12-20T10:53:01;15.10;;;8.15;;
75135;SDS011;63707;52.212;9.540;2022-12-20T10:55:34;12.75;;;7.55;;
75135;SDS011;63707;52.212;9.540;2022-12-20T10:58:02;14.32;;;7.95;;
75135;SDS011;63707;52.212;9.540;2022-12-20T11:00:30;15.98;;;7.72;;
75135;SDS011;63707;52.212;9.540;2022-12-20T11:03:09;15.95;;;7.88;;
75135;SDS011;63707;52.212;9.540;2022-12-20T11:05:37;13.52;;;7.63;;
75135;SDS011;63707;52.212;9.540;2022-12-20T11:08:06;13.95;;;7.63;;
75135;SDS011;63707;52.212;9.540;2022-12-20T11:10:38;12.60;;;7.00;;
75135;SDS011;63707;52.212;9.540;2022-12-20T11:13:04;12.80;;;7.32;;
75135;SDS011;63707;52.212;9.540;2022-12-20T11:15:31;12.98;;;7.85;;
75135;SDS011;63707;52.212;9.540;2022-12-20T11:17:58;13.45;;;7.30;;
75135;SDS011;63707;52.212;9.540;2022-12-20T11:20:30;15.13;;;8.10;;
75135;SDS011;63707;52.212;9.540;2022-12-20T11:23:07;12.73;;;6.88;;
75135;SDS011;63707;52.212;9.540;2022-12-20T11:25:49;12.60;;;8.00;;
75135;SDS011;63707;52.212;9.540;2022-12-20T11:28:29;14.55;;;7.63;;
75135;SDS011;63707;52.212;9.540;2022-12-20T11:31:08;15.20;;;7.00;;
75135;SDS011;63707;52.212;9.540;2022-12-20T11:33:41;14.32;;;7.90;;
75135;SDS011;63707;52.212;9.540;2022-12-20T11:36:17;15.00;;;6.97;;
75135;SDS011;63707;52.212;9.540;2022-12-20T11:38:55;13.35;;;6.75;;
75135;SDS011;63707;52.212;9.540;2022-12-20T11:41:27;11.90;;;6.80;;
75135;SDS011;63707;52.212;9.540;2022-12-20T11:44:05;14.02;;;7.85;;
75135;SDS011;63707;52.212;9.540;2022-12-20T11:46:40;12.52;;;7.13;;
75135;SDS011;63707;52.212;9.540;2022-12-20T11:52:12;11.25;;;6.75;;
75135;SDS011;63707;52.212;9.540;2022-12-20T11:54:46;14.02;;;7.10;;
75135;SDS011;63707;52.212;9.540;2022-12-20T11:57:28;13.48;;;6.78;;
75135;SDS011;63707;52.212;9.540;2022-12-20T12:00:03;12.32;;;7.03;;
75135;SDS011;63707;52.212;9.540;2022-12-20T12:02:32;13.02;;;6.68;;
75135;SDS011;63707;52.212;9.540;2022-12-20T12:05:03;12.57;;;7.28;;
75135;SDS011;63707;52.212;9.540;2022-12-20T12:07:32;16.08;;;7.53;;
75135;SDS011;63707;52.212;9.540;2022-12-20T12:10:00;16.50;;;6.75;;
75135;SDS011;63707;52.212;9.540;2022-12-20T12:12:32;13.55;;;6.85;;
75135;SDS011;63707;52.212;9.540;2022-12-20T12:15:01;12.20;;;6.95;;
75135;SDS011;63707;52.212;9.540;2022-12-20T12:17:32;13.77;;;6.90;;
75135;SDS011;63707;52.212;9.540;2022-12-20T12:20:17;11.50;;;6.80;;
75135;SDS011;63707;52.212;9.540;2022-12-20T12:22:48;10.75;;;6.35;;
75135;SDS011;63707;52.212;9.540;2022-12-20T12:25:18;13.05;;;6.85;;
75135;SDS011;63707;52.212;9.540;2022-12-20T12:27:45;14.48;;;7.22;;
75135;SDS011;63707;52.212;9.540;2022-12-20T12:30:11;11.32;;;6.85;;
75135;SDS011;63707;52.212;9.540;2022-12-20T12:32:38;12.57;;;6.78;;
75135;SDS011;63707;52.212;9.540;2022-12-20T12:35:12;10.77;;;7.38;;
75135;SDS011;63707;52.212;9.540;2022-12-20T12:37:53;13.27;;;6.63;;
75135;SDS011;63707;52.212;9.540;2022-12-20T12:40:33;10.27;;;5.85;;
75135;SDS011;63707;52.212;9.540;2022-12-20T12:43:28;10.98;;;6.63;;
75135;SDS011;63707;52.212;9.540;2022-12-20T12:46:12;11.95;;;6.10;;
75135;SDS011;63707;52.212;9.540;2022-12-20T12:48:41;14.32;;;5.82;;
75135;SDS011;63707;52.212;9.540;2022-12-20T12:51:11;11.05;;;6.72;;
75135;SDS011;63707;52.212;9.540;2022-12-20T12:53:41;12.38;;;6.55;;
75135;SDS011;63707;52.212;9.540;2022-12-20T12:59:20;13.73;;;6.47;;
75135;SDS011;63707;52.212;9.540;2022-12-20T13:04:54;11.40;;;6.15;;
75135;SDS011;63707;52.212;9.540;2022-12-20T13:07:25;15.38;;;6.47;;
75135;SDS011;63707;52.212;9.540;2022-12-20T13:09:55;12.27;;;6.63;;
75135;SDS011;63707;52.212;9.540;2022-12-20T13:18:29;14.00;;;6.53;;
75135;SDS011;63707;52.212;9.540;2022-12-20T13:27:12;12.63;;;6.22;;
75135;SDS011;63707;52.212;9.540;2022-12-20T13:29:49;12.35;;;6.50;;
75135;SDS011;63707;52.212;9.540;2022-12-20T13:35:28;10.93;;;6.05;;
75135;SDS011;63707;52.212;9.540;2022-12-20T13:41:08;11.82;;;6.32;;
75135;SDS011;63707;52.212;9.540;2022-12-20T13:43:43;10.43;;;6.30;;
75135;SDS011;63707;52.212;9.540;2022-12-20T13:46:11;13.80;;;6.90;;
75135;SDS011;63707;52.212;9.540;2022-12-20T13:48:45;13.52;;;6.53;;
75135;SDS011;63707;52.212;9.540;2022-12-20T13:51:15;12.30;;;6.80;;
75135;SDS011;63707;52.212;9.540;2022-12-20T13:53:46;11.13;;;6.82;;
75135;SDS011;63707;52.212;9.540;2022-12-20T14:01:29;11.07;;;5.97;;
75135;SDS011;63707;52.212;9.540;2022-12-20T14:04:01;11.73;;;6.35;;
75135;SDS011;63707;52.212;9.540;2022-12-20T14:06:28;12.65;;;6.43;;
75135;SDS011;63707;52.212;9.540;2022-12-20T14:08:54;13.50;;;6.18;;
75135;SDS011;63707;52.212;9.540;2022-12-20T14:11:20;12.10;;;6.93;;
75135;SDS011;63707;52.212;9.540;2022-12-20T14:13:50;29.60;;;14.45;;
75135;SDS011;63707;52.212;9.540;2022-12-20T14:16:18;11.57;;;6.40;;
75135;SDS011;63707;52.212;9.540;2022-12-20T14:18:47;10.73;;;5.90;;
75135;SDS011;63707;52.212;9.540;2022-12-20T14:21:14;13.27;;;6.75;;
75135;SDS011;63707;52.212;9.540;2022-12-20T14:23:41;14.88;;;6.88;;
75135;SDS011;63707;52.212;9.540;2022-12-20T14:26:10;10.88;;;6.63;;
75135;SDS011;63707;52.212;9.540;2022-12-20T14:28:38;12.70;;;6.32;;
75135;SDS011;63707;52.212;9.540;2022-12-20T14:31:06;11.20;;;5.95;;
75135;SDS011;63707;52.212;9.540;2022-12-20T14:33:47;10.93;;;6.30;;
75135;SDS011;63707;52.212;9.540;2022-12-20T14:36:18;11.70;;;5.78;;
75135;SDS011;63707;52.212;9.540;2022-12-20T14:38:45;9.38;;;5.90;;
75135;SDS011;63707;52.212;9.540;2022-12-20T14:41:31;11.50;;;6.30;;
75135;SDS011;63707;52.212;9.540;2022-12-20T14:44:01;10.52;;;5.82;;
75135;SDS011;63707;52.212;9.540;2022-12-20T14:46:28;8.98;;;5.32;;
75135;SDS011;63707;52.212;9.540;2022-12-20T14:49:04;11.50;;;5.60;;
75135;SDS011;63707;52.212;9.540;2022-12-20T14:51:41;9.73;;;5.47;;
75135;SDS011;63707;52.212;9.540;2022-12-20T14:54:09;10.10;;;5.70;;
75135;SDS011;63707;52.212;9.540;2022-12-20T14:56:43;13.15;;;6.25;;
75135;SDS011;63707;52.212;9.540;2022-12-20T14:59:12;10.48;;;6.25;;
75135;SDS011;63707;52.212;9.540;2022-12-20T15:01:39;10.85;;;5.88;;
75135;SDS011;63707;52.212;9.540;2022-12-20T15:04:18;11.18;;;5.90;;
75135;SDS011;63707;52.212;9.540;2022-12-20T15:06:48;10.23;;;5.70;;
75135;SDS011;63707;52.212;9.540;2022-12-20T15:09:14;10.75;;;5.85;;
75135;SDS011;63707;52.212;9.540;2022-12-20T15:11:40;11.20;;;6.03;;
75135;SDS011;63707;52.212;9.540;2022-12-20T15:14:11;10.65;;;5.50;;